<?xml version="1.0" encoding="UTF-8" standalone="no" ?>
<gpx xmlns="http://www.topografix.com/GPX/1/1" xmlns:xsi="http://www.w3.org/2001/XMLSchema-instance" xsi:schemaLocation="http://www.topografix.com/GPX/1/1 http://www.topografix.com/GPX/1/1/gpx.xsd" version="1.1" creator="VisuGPX - https://www.visugpx.com">
  <metadata>
    <name>Pointe de Marcelly</name>
    <desc><![CDATA[Randonnée à ski à la pointe de Marcelly depuis Praz de Lys.
(mise en route du GPS tardive, mais retour à la voiture).
Rando contemplative!]]></desc>
  </metadata>
  <trk>
    <name><![CDATA[Pointe de Marcelly_1]]></name>
    <trkseg>
      <trkpt lat="46.13562" lon="6.58103">
        <ele>1550.3239746094</ele>
        <time>2017-05-13T08:23:40Z</time>
      </trkpt>
      <trkpt lat="46.13573" lon="6.58103">
        <ele>1571.3060302734</ele>
        <time>2017-05-13T08:24:13Z</time>
      </trkpt>
      <trkpt lat="46.13563" lon="6.58096">
        <ele>1568.2769775391</ele>
        <time>2017-05-13T08:24:28Z</time>
      </trkpt>
      <trkpt lat="46.13562" lon="6.5808">
        <ele>1566.9320068359</ele>
        <time>2017-05-13T08:24:41Z</time>
      </trkpt>
      <trkpt lat="46.13556" lon="6.58073">
        <ele>1566.4129638672</ele>
        <time>2017-05-13T08:24:48Z</time>
      </trkpt>
      <trkpt lat="46.13551" lon="6.58066">
        <ele>1565.2259521484</ele>
        <time>2017-05-13T08:24:56Z</time>
      </trkpt>
      <trkpt lat="46.13545" lon="6.5806">
        <ele>1565.2259521484</ele>
        <time>2017-05-13T08:25:01Z</time>
      </trkpt>
      <trkpt lat="46.13538" lon="6.58055">
        <ele>1565.1190185547</ele>
        <time>2017-05-13T08:25:08Z</time>
      </trkpt>
      <trkpt lat="46.13532" lon="6.58048">
        <ele>1565.0240478516</ele>
        <time>2017-05-13T08:25:13Z</time>
      </trkpt>
      <trkpt lat="46.13525" lon="6.58042">
        <ele>1566.5469970703</ele>
        <time>2017-05-13T08:25:24Z</time>
      </trkpt>
      <trkpt lat="46.13519" lon="6.58036">
        <ele>1566.8719482422</ele>
        <time>2017-05-13T08:25:30Z</time>
      </trkpt>
      <trkpt lat="46.13516" lon="6.58025">
        <ele>1567.2340087891</ele>
        <time>2017-05-13T08:25:38Z</time>
      </trkpt>
      <trkpt lat="46.1351" lon="6.58018">
        <ele>1567.2220458984</ele>
        <time>2017-05-13T08:25:45Z</time>
      </trkpt>
      <trkpt lat="46.13504" lon="6.58013">
        <ele>1568.166015625</ele>
        <time>2017-05-13T08:25:54Z</time>
      </trkpt>
      <trkpt lat="46.135" lon="6.58003">
        <ele>1569.4169921875</ele>
        <time>2017-05-13T08:26:01Z</time>
      </trkpt>
      <trkpt lat="46.13494" lon="6.57996">
        <ele>1570.7399902344</ele>
        <time>2017-05-13T08:26:08Z</time>
      </trkpt>
      <trkpt lat="46.13488" lon="6.57989">
        <ele>1571.5209960938</ele>
        <time>2017-05-13T08:26:16Z</time>
      </trkpt>
      <trkpt lat="46.13482" lon="6.57982">
        <ele>1571.7679443359</ele>
        <time>2017-05-13T08:26:26Z</time>
      </trkpt>
      <trkpt lat="46.13476" lon="6.57976">
        <ele>1572.5729980469</ele>
        <time>2017-05-13T08:26:38Z</time>
      </trkpt>
      <trkpt lat="46.13475" lon="6.57965">
        <ele>1572.1629638672</ele>
        <time>2017-05-13T08:26:54Z</time>
      </trkpt>
      <trkpt lat="46.13472" lon="6.57956">
        <ele>1575.2469482422</ele>
        <time>2017-05-13T08:27:48Z</time>
      </trkpt>
      <trkpt lat="46.13465" lon="6.5795">
        <ele>1575.8969726562</ele>
        <time>2017-05-13T08:27:55Z</time>
      </trkpt>
      <trkpt lat="46.13458" lon="6.5795">
        <ele>1576.1390380859</ele>
        <time>2017-05-13T08:28:06Z</time>
      </trkpt>
      <trkpt lat="46.13452" lon="6.57959">
        <ele>1578.9219970703</ele>
        <time>2017-05-13T08:28:33Z</time>
      </trkpt>
      <trkpt lat="46.13446" lon="6.57964">
        <ele>1578.7779541016</ele>
        <time>2017-05-13T08:29:08Z</time>
      </trkpt>
      <trkpt lat="46.13445" lon="6.57953">
        <ele>1579.0209960938</ele>
        <time>2017-05-13T08:30:50Z</time>
      </trkpt>
      <trkpt lat="46.13441" lon="6.57944">
        <ele>1578.8439941406</ele>
        <time>2017-05-13T08:31:01Z</time>
      </trkpt>
      <trkpt lat="46.13437" lon="6.57935">
        <ele>1578.873046875</ele>
        <time>2017-05-13T08:31:13Z</time>
      </trkpt>
      <trkpt lat="46.13431" lon="6.57927">
        <ele>1577.3640136719</ele>
        <time>2017-05-13T08:31:30Z</time>
      </trkpt>
      <trkpt lat="46.13424" lon="6.57921">
        <ele>1577.7020263672</ele>
        <time>2017-05-13T08:31:40Z</time>
      </trkpt>
      <trkpt lat="46.13417" lon="6.57916">
        <ele>1580.0179443359</ele>
        <time>2017-05-13T08:31:50Z</time>
      </trkpt>
      <trkpt lat="46.13412" lon="6.57908">
        <ele>1581.6899414062</ele>
        <time>2017-05-13T08:32:02Z</time>
      </trkpt>
      <trkpt lat="46.13406" lon="6.57901">
        <ele>1583.6309814453</ele>
        <time>2017-05-13T08:32:11Z</time>
      </trkpt>
      <trkpt lat="46.134" lon="6.57895">
        <ele>1585.9219970703</ele>
        <time>2017-05-13T08:32:22Z</time>
      </trkpt>
      <trkpt lat="46.13397" lon="6.57882">
        <ele>1587.2679443359</ele>
        <time>2017-05-13T08:32:34Z</time>
      </trkpt>
      <trkpt lat="46.13393" lon="6.57873">
        <ele>1587.3349609375</ele>
        <time>2017-05-13T08:32:50Z</time>
      </trkpt>
      <trkpt lat="46.13387" lon="6.57865">
        <ele>1588.5469970703</ele>
        <time>2017-05-13T08:33:01Z</time>
      </trkpt>
      <trkpt lat="46.13387" lon="6.57854">
        <ele>1588.8780517578</ele>
        <time>2017-05-13T08:33:11Z</time>
      </trkpt>
      <trkpt lat="46.13386" lon="6.57844">
        <ele>1589.3609619141</ele>
        <time>2017-05-13T08:33:23Z</time>
      </trkpt>
      <trkpt lat="46.13386" lon="6.57833">
        <ele>1590.5460205078</ele>
        <time>2017-05-13T08:33:36Z</time>
      </trkpt>
      <trkpt lat="46.1338" lon="6.57827">
        <ele>1592.1340332031</ele>
        <time>2017-05-13T08:33:47Z</time>
      </trkpt>
      <trkpt lat="46.13379" lon="6.57816">
        <ele>1598.6459960938</ele>
        <time>2017-05-13T08:34:29Z</time>
      </trkpt>
      <trkpt lat="46.1338" lon="6.57804">
        <ele>1601.4079589844</ele>
        <time>2017-05-13T08:34:45Z</time>
      </trkpt>
      <trkpt lat="46.13382" lon="6.57794">
        <ele>1602.9849853516</ele>
        <time>2017-05-13T08:34:58Z</time>
      </trkpt>
      <trkpt lat="46.13383" lon="6.57783">
        <ele>1605.0209960938</ele>
        <time>2017-05-13T08:35:13Z</time>
      </trkpt>
      <trkpt lat="46.13388" lon="6.57774">
        <ele>1608.875</ele>
        <time>2017-05-13T08:35:31Z</time>
      </trkpt>
      <trkpt lat="46.13387" lon="6.57763">
        <ele>1611.2530517578</ele>
        <time>2017-05-13T08:35:44Z</time>
      </trkpt>
      <trkpt lat="46.13388" lon="6.57753">
        <ele>1614.8580322266</ele>
        <time>2017-05-13T08:36:13Z</time>
      </trkpt>
      <trkpt lat="46.13389" lon="6.57742">
        <ele>1617.3599853516</ele>
        <time>2017-05-13T08:36:37Z</time>
      </trkpt>
      <trkpt lat="46.13388" lon="6.57732">
        <ele>1619.1860351562</ele>
        <time>2017-05-13T08:36:53Z</time>
      </trkpt>
      <trkpt lat="46.13385" lon="6.57722">
        <ele>1623.2669677734</ele>
        <time>2017-05-13T08:37:29Z</time>
      </trkpt>
      <trkpt lat="46.13378" lon="6.57716">
        <ele>1627.2380371094</ele>
        <time>2017-05-13T08:37:51Z</time>
      </trkpt>
      <trkpt lat="46.13373" lon="6.57723">
        <ele>1629.8969726562</ele>
        <time>2017-05-13T08:38:05Z</time>
      </trkpt>
      <trkpt lat="46.13366" lon="6.57727">
        <ele>1632.5269775391</ele>
        <time>2017-05-13T08:38:59Z</time>
      </trkpt>
      <trkpt lat="46.13358" lon="6.57726">
        <ele>1633.3480224609</ele>
        <time>2017-05-13T08:39:06Z</time>
      </trkpt>
      <trkpt lat="46.13351" lon="6.57725">
        <ele>1634.4460449219</ele>
        <time>2017-05-13T08:39:19Z</time>
      </trkpt>
      <trkpt lat="46.13343" lon="6.57722">
        <ele>1636.54296875</ele>
        <time>2017-05-13T08:39:38Z</time>
      </trkpt>
      <trkpt lat="46.13336" lon="6.5772">
        <ele>1637.9139404297</ele>
        <time>2017-05-13T08:39:50Z</time>
      </trkpt>
      <trkpt lat="46.1333" lon="6.57727">
        <ele>1639.3929443359</ele>
        <time>2017-05-13T08:40:00Z</time>
      </trkpt>
      <trkpt lat="46.13326" lon="6.57736">
        <ele>1641.1560058594</ele>
        <time>2017-05-13T08:40:15Z</time>
      </trkpt>
      <trkpt lat="46.13323" lon="6.57747">
        <ele>1642.6400146484</ele>
        <time>2017-05-13T08:40:28Z</time>
      </trkpt>
      <trkpt lat="46.13323" lon="6.57757">
        <ele>1645.0749511719</ele>
        <time>2017-05-13T08:40:38Z</time>
      </trkpt>
      <trkpt lat="46.13317" lon="6.57765">
        <ele>1647.3260498047</ele>
        <time>2017-05-13T08:40:50Z</time>
      </trkpt>
      <trkpt lat="46.13311" lon="6.57772">
        <ele>1649.0510253906</ele>
        <time>2017-05-13T08:40:59Z</time>
      </trkpt>
      <trkpt lat="46.13305" lon="6.5778">
        <ele>1650.6009521484</ele>
        <time>2017-05-13T08:41:09Z</time>
      </trkpt>
      <trkpt lat="46.13299" lon="6.57787">
        <ele>1652.0799560547</ele>
        <time>2017-05-13T08:41:19Z</time>
      </trkpt>
      <trkpt lat="46.13292" lon="6.57791">
        <ele>1652.5720214844</ele>
        <time>2017-05-13T08:41:31Z</time>
      </trkpt>
      <trkpt lat="46.13285" lon="6.57797">
        <ele>1653.541015625</ele>
        <time>2017-05-13T08:41:45Z</time>
      </trkpt>
      <trkpt lat="46.13279" lon="6.57803">
        <ele>1653.7879638672</ele>
        <time>2017-05-13T08:41:56Z</time>
      </trkpt>
      <trkpt lat="46.13273" lon="6.57811">
        <ele>1655.3370361328</ele>
        <time>2017-05-13T08:42:12Z</time>
      </trkpt>
      <trkpt lat="46.13268" lon="6.57819">
        <ele>1656.6789550781</ele>
        <time>2017-05-13T08:42:28Z</time>
      </trkpt>
      <trkpt lat="46.13265" lon="6.5783">
        <ele>1659.5100097656</ele>
        <time>2017-05-13T08:42:41Z</time>
      </trkpt>
      <trkpt lat="46.13266" lon="6.57842">
        <ele>1661.5269775391</ele>
        <time>2017-05-13T08:42:48Z</time>
      </trkpt>
      <trkpt lat="46.13266" lon="6.57853">
        <ele>1665.2170410156</ele>
        <time>2017-05-13T08:43:02Z</time>
      </trkpt>
      <trkpt lat="46.13265" lon="6.57864">
        <ele>1670.8129882812</ele>
        <time>2017-05-13T08:43:47Z</time>
      </trkpt>
      <trkpt lat="46.13257" lon="6.5786">
        <ele>1674.5040283203</ele>
        <time>2017-05-13T08:44:13Z</time>
      </trkpt>
      <trkpt lat="46.1325" lon="6.57855">
        <ele>1675.5260009766</ele>
        <time>2017-05-13T08:44:24Z</time>
      </trkpt>
      <trkpt lat="46.13242" lon="6.57855">
        <ele>1681.2149658203</ele>
        <time>2017-05-13T08:45:15Z</time>
      </trkpt>
      <trkpt lat="46.13234" lon="6.57854">
        <ele>1684.0419921875</ele>
        <time>2017-05-13T08:45:32Z</time>
      </trkpt>
      <trkpt lat="46.13227" lon="6.57853">
        <ele>1686.7239990234</ele>
        <time>2017-05-13T08:45:47Z</time>
      </trkpt>
      <trkpt lat="46.13222" lon="6.57861">
        <ele>1688.2180175781</ele>
        <time>2017-05-13T08:45:58Z</time>
      </trkpt>
      <trkpt lat="46.13214" lon="6.57863">
        <ele>1690.0279541016</ele>
        <time>2017-05-13T08:46:14Z</time>
      </trkpt>
      <trkpt lat="46.13206" lon="6.57861">
        <ele>1691.9830322266</ele>
        <time>2017-05-13T08:46:28Z</time>
      </trkpt>
      <trkpt lat="46.13198" lon="6.57859">
        <ele>1695.6820068359</ele>
        <time>2017-05-13T08:46:49Z</time>
      </trkpt>
      <trkpt lat="46.13191" lon="6.57855">
        <ele>1698.0649414062</ele>
        <time>2017-05-13T08:47:03Z</time>
      </trkpt>
      <trkpt lat="46.13188" lon="6.57846">
        <ele>1698.9100341797</ele>
        <time>2017-05-13T08:47:16Z</time>
      </trkpt>
      <trkpt lat="46.13184" lon="6.57837">
        <ele>1699.5300292969</ele>
        <time>2017-05-13T08:47:30Z</time>
      </trkpt>
      <trkpt lat="46.13176" lon="6.57835">
        <ele>1700.4420166016</ele>
        <time>2017-05-13T08:47:41Z</time>
      </trkpt>
      <trkpt lat="46.13168" lon="6.57838">
        <ele>1703.166015625</ele>
        <time>2017-05-13T08:48:02Z</time>
      </trkpt>
      <trkpt lat="46.13162" lon="6.57843">
        <ele>1706.7629394531</ele>
        <time>2017-05-13T08:48:22Z</time>
      </trkpt>
      <trkpt lat="46.13154" lon="6.57843">
        <ele>1711.1729736328</ele>
        <time>2017-05-13T08:49:53Z</time>
      </trkpt>
      <trkpt lat="46.13148" lon="6.57838">
        <ele>1713.5639648438</ele>
        <time>2017-05-13T08:50:06Z</time>
      </trkpt>
      <trkpt lat="46.13141" lon="6.57833">
        <ele>1721.2609863281</ele>
        <time>2017-05-13T08:51:02Z</time>
      </trkpt>
      <trkpt lat="46.13135" lon="6.57826">
        <ele>1723.9239501953</ele>
        <time>2017-05-13T08:51:21Z</time>
      </trkpt>
      <trkpt lat="46.13129" lon="6.5782">
        <ele>1726.7509765625</ele>
        <time>2017-05-13T08:51:49Z</time>
      </trkpt>
      <trkpt lat="46.13123" lon="6.57811">
        <ele>1729.0129394531</ele>
        <time>2017-05-13T08:52:07Z</time>
      </trkpt>
      <trkpt lat="46.13117" lon="6.57804">
        <ele>1731.1820068359</ele>
        <time>2017-05-13T08:52:25Z</time>
      </trkpt>
      <trkpt lat="46.13115" lon="6.57794">
        <ele>1734.7800292969</ele>
        <time>2017-05-13T08:52:58Z</time>
      </trkpt>
      <trkpt lat="46.13115" lon="6.57783">
        <ele>1736.2110595703</ele>
        <time>2017-05-13T08:53:10Z</time>
      </trkpt>
      <trkpt lat="46.13112" lon="6.57773">
        <ele>1738.3599853516</ele>
        <time>2017-05-13T08:53:38Z</time>
      </trkpt>
      <trkpt lat="46.13109" lon="6.57762">
        <ele>1742.95703125</ele>
        <time>2017-05-13T08:54:13Z</time>
      </trkpt>
      <trkpt lat="46.13108" lon="6.57752">
        <ele>1744.8859863281</ele>
        <time>2017-05-13T08:54:25Z</time>
      </trkpt>
      <trkpt lat="46.13104" lon="6.57743">
        <ele>1746.873046875</ele>
        <time>2017-05-13T08:54:38Z</time>
      </trkpt>
      <trkpt lat="46.13096" lon="6.57743">
        <ele>1749.1970214844</ele>
        <time>2017-05-13T08:55:11Z</time>
      </trkpt>
      <trkpt lat="46.13089" lon="6.57749">
        <ele>1750.8590087891</ele>
        <time>2017-05-13T08:55:34Z</time>
      </trkpt>
      <trkpt lat="46.13086" lon="6.57739">
        <ele>1756.0269775391</ele>
        <time>2017-05-13T08:56:02Z</time>
      </trkpt>
      <trkpt lat="46.13083" lon="6.57729">
        <ele>1758.6789550781</ele>
        <time>2017-05-13T08:56:22Z</time>
      </trkpt>
      <trkpt lat="46.13079" lon="6.5772">
        <ele>1760.1409912109</ele>
        <time>2017-05-13T08:56:49Z</time>
      </trkpt>
      <trkpt lat="46.13073" lon="6.57727">
        <ele>1762.7829589844</ele>
        <time>2017-05-13T08:57:09Z</time>
      </trkpt>
      <trkpt lat="46.13066" lon="6.5773">
        <ele>1764.0520019531</ele>
        <time>2017-05-13T08:57:22Z</time>
      </trkpt>
      <trkpt lat="46.13066" lon="6.57741">
        <ele>1766.6870117188</ele>
        <time>2017-05-13T08:57:42Z</time>
      </trkpt>
      <trkpt lat="46.13058" lon="6.57738">
        <ele>1772.0119628906</ele>
        <time>2017-05-13T08:58:19Z</time>
      </trkpt>
      <trkpt lat="46.13052" lon="6.57745">
        <ele>1774.7399902344</ele>
        <time>2017-05-13T08:59:38Z</time>
      </trkpt>
      <trkpt lat="46.13045" lon="6.57741">
        <ele>1775.7099609375</ele>
        <time>2017-05-13T08:59:50Z</time>
      </trkpt>
      <trkpt lat="46.13037" lon="6.57744">
        <ele>1775.9949951172</ele>
        <time>2017-05-13T09:00:01Z</time>
      </trkpt>
      <trkpt lat="46.1303" lon="6.57745">
        <ele>1776.2750244141</ele>
        <time>2017-05-13T09:00:10Z</time>
      </trkpt>
      <trkpt lat="46.13034" lon="6.57736">
        <ele>1778.3879394531</ele>
        <time>2017-05-13T09:00:38Z</time>
      </trkpt>
      <trkpt lat="46.13036" lon="6.57726">
        <ele>1784.1600341797</ele>
        <time>2017-05-13T09:02:30Z</time>
      </trkpt>
      <trkpt lat="46.13037" lon="6.57715">
        <ele>1785.7180175781</ele>
        <time>2017-05-13T09:02:43Z</time>
      </trkpt>
      <trkpt lat="46.13035" lon="6.57705">
        <ele>1787.3759765625</ele>
        <time>2017-05-13T09:03:02Z</time>
      </trkpt>
      <trkpt lat="46.13036" lon="6.57694">
        <ele>1788.4479980469</ele>
        <time>2017-05-13T09:03:17Z</time>
      </trkpt>
      <trkpt lat="46.13036" lon="6.57683">
        <ele>1792.8540039062</ele>
        <time>2017-05-13T09:03:55Z</time>
      </trkpt>
      <trkpt lat="46.13032" lon="6.57675">
        <ele>1798.4169921875</ele>
        <time>2017-05-13T09:04:44Z</time>
      </trkpt>
      <trkpt lat="46.13026" lon="6.57681">
        <ele>1799.7550048828</ele>
        <time>2017-05-13T09:04:58Z</time>
      </trkpt>
      <trkpt lat="46.13019" lon="6.57687">
        <ele>1801.5269775391</ele>
        <time>2017-05-13T09:05:30Z</time>
      </trkpt>
      <trkpt lat="46.13013" lon="6.57694">
        <ele>1804.2370605469</ele>
        <time>2017-05-13T09:05:58Z</time>
      </trkpt>
      <trkpt lat="46.13006" lon="6.57698">
        <ele>1807.8709716797</ele>
        <time>2017-05-13T09:06:33Z</time>
      </trkpt>
      <trkpt lat="46.13001" lon="6.57706">
        <ele>1809.7309570312</ele>
        <time>2017-05-13T09:06:45Z</time>
      </trkpt>
      <trkpt lat="46.12995" lon="6.57711">
        <ele>1812.7969970703</ele>
        <time>2017-05-13T09:07:07Z</time>
      </trkpt>
      <trkpt lat="46.1299" lon="6.57719">
        <ele>1817.6219482422</ele>
        <time>2017-05-13T09:07:46Z</time>
      </trkpt>
      <trkpt lat="46.12988" lon="6.57708">
        <ele>1822.8520507812</ele>
        <time>2017-05-13T09:08:44Z</time>
      </trkpt>
      <trkpt lat="46.12987" lon="6.57697">
        <ele>1826.4040527344</ele>
        <time>2017-05-13T09:09:25Z</time>
      </trkpt>
      <trkpt lat="46.1298" lon="6.57702">
        <ele>1832.2030029297</ele>
        <time>2017-05-13T09:10:47Z</time>
      </trkpt>
      <trkpt lat="46.12979" lon="6.57691">
        <ele>1835.3189697266</ele>
        <time>2017-05-13T09:11:37Z</time>
      </trkpt>
      <trkpt lat="46.1298" lon="6.57679">
        <ele>1838.0889892578</ele>
        <time>2017-05-13T09:12:33Z</time>
      </trkpt>
      <trkpt lat="46.12971" lon="6.5768">
        <ele>1848.1519775391</ele>
        <time>2017-05-13T09:17:05Z</time>
      </trkpt>
      <trkpt lat="46.12966" lon="6.57689">
        <ele>1850.3210449219</ele>
        <time>2017-05-13T09:17:17Z</time>
      </trkpt>
      <trkpt lat="46.12963" lon="6.57698">
        <ele>1854.2719726562</ele>
        <time>2017-05-13T09:19:20Z</time>
      </trkpt>
      <trkpt lat="46.12956" lon="6.57705">
        <ele>1855.9399414062</ele>
        <time>2017-05-13T09:19:40Z</time>
      </trkpt>
      <trkpt lat="46.12952" lon="6.57715">
        <ele>1858.8979492188</ele>
        <time>2017-05-13T09:20:11Z</time>
      </trkpt>
      <trkpt lat="46.12949" lon="6.57724">
        <ele>1859.9880371094</ele>
        <time>2017-05-13T09:20:19Z</time>
      </trkpt>
      <trkpt lat="46.12945" lon="6.57735">
        <ele>1861.1569824219</ele>
        <time>2017-05-13T09:20:39Z</time>
      </trkpt>
      <trkpt lat="46.12942" lon="6.57745">
        <ele>1862.4949951172</ele>
        <time>2017-05-13T09:20:58Z</time>
      </trkpt>
      <trkpt lat="46.12938" lon="6.57755">
        <ele>1865.2380371094</ele>
        <time>2017-05-13T09:21:43Z</time>
      </trkpt>
      <trkpt lat="46.12934" lon="6.57764">
        <ele>1867.0889892578</ele>
        <time>2017-05-13T09:21:58Z</time>
      </trkpt>
      <trkpt lat="46.12929" lon="6.57772">
        <ele>1868.7609863281</ele>
        <time>2017-05-13T09:22:20Z</time>
      </trkpt>
      <trkpt lat="46.12924" lon="6.5778">
        <ele>1873.3160400391</ele>
        <time>2017-05-13T09:23:47Z</time>
      </trkpt>
      <trkpt lat="46.12918" lon="6.57787">
        <ele>1876.9639892578</ele>
        <time>2017-05-13T09:24:39Z</time>
      </trkpt>
      <trkpt lat="46.12911" lon="6.5779">
        <ele>1878.6579589844</ele>
        <time>2017-05-13T09:24:54Z</time>
      </trkpt>
      <trkpt lat="46.12904" lon="6.57797">
        <ele>1881.1469726562</ele>
        <time>2017-05-13T09:25:11Z</time>
      </trkpt>
      <trkpt lat="46.12901" lon="6.57787">
        <ele>1883.9029541016</ele>
        <time>2017-05-13T09:25:44Z</time>
      </trkpt>
      <trkpt lat="46.12895" lon="6.5779">
        <ele>1889.0030517578</ele>
        <time>2017-05-13T09:26:20Z</time>
      </trkpt>
      <trkpt lat="46.12891" lon="6.57781">
        <ele>1892.5100097656</ele>
        <time>2017-05-13T09:27:23Z</time>
      </trkpt>
      <trkpt lat="46.12891" lon="6.57771">
        <ele>1893.9370117188</ele>
        <time>2017-05-13T09:27:35Z</time>
      </trkpt>
      <trkpt lat="46.12888" lon="6.57761">
        <ele>1897.6569824219</ele>
        <time>2017-05-13T09:28:08Z</time>
      </trkpt>
      <trkpt lat="46.12882" lon="6.57753">
        <ele>1899.8640136719</ele>
        <time>2017-05-13T09:28:23Z</time>
      </trkpt>
      <trkpt lat="46.12881" lon="6.57742">
        <ele>1902.4749755859</ele>
        <time>2017-05-13T09:28:43Z</time>
      </trkpt>
      <trkpt lat="46.12886" lon="6.57735">
        <ele>1904.5200195312</ele>
        <time>2017-05-13T09:29:00Z</time>
      </trkpt>
      <trkpt lat="46.12892" lon="6.57728">
        <ele>1907.2409667969</ele>
        <time>2017-05-13T09:29:18Z</time>
      </trkpt>
      <trkpt lat="46.12894" lon="6.57718">
        <ele>1909.4069824219</ele>
        <time>2017-05-13T09:29:38Z</time>
      </trkpt>
      <trkpt lat="46.12892" lon="6.57707">
        <ele>1912.1989746094</ele>
        <time>2017-05-13T09:30:38Z</time>
      </trkpt>
      <trkpt lat="46.12891" lon="6.57697">
        <ele>1914.6889648438</ele>
        <time>2017-05-13T09:30:53Z</time>
      </trkpt>
      <trkpt lat="46.12888" lon="6.57707">
        <ele>1916.7989501953</ele>
        <time>2017-05-13T09:31:09Z</time>
      </trkpt>
      <trkpt lat="46.12881" lon="6.5771">
        <ele>1918.9840087891</ele>
        <time>2017-05-13T09:31:26Z</time>
      </trkpt>
      <trkpt lat="46.12878" lon="6.577">
        <ele>1922.6970214844</ele>
        <time>2017-05-13T09:32:05Z</time>
      </trkpt>
      <trkpt lat="46.12874" lon="6.5769">
        <ele>1926.5140380859</ele>
        <time>2017-05-13T09:32:32Z</time>
      </trkpt>
      <trkpt lat="46.12868" lon="6.57685">
        <ele>1933.2969970703</ele>
        <time>2017-05-13T09:33:41Z</time>
      </trkpt>
      <trkpt lat="46.12868" lon="6.57674">
        <ele>1934.5080566406</ele>
        <time>2017-05-13T09:34:19Z</time>
      </trkpt>
      <trkpt lat="46.12863" lon="6.57668">
        <ele>1941.4069824219</ele>
        <time>2017-05-13T09:37:18Z</time>
      </trkpt>
      <trkpt lat="46.1286" lon="6.57658">
        <ele>1943.6500244141</ele>
        <time>2017-05-13T09:37:44Z</time>
      </trkpt>
      <trkpt lat="46.12857" lon="6.57648">
        <ele>1947.5760498047</ele>
        <time>2017-05-13T09:38:23Z</time>
      </trkpt>
      <trkpt lat="46.12853" lon="6.57639">
        <ele>1954.0069580078</ele>
        <time>2017-05-13T09:39:14Z</time>
      </trkpt>
      <trkpt lat="46.1285" lon="6.57629">
        <ele>1958.6989746094</ele>
        <time>2017-05-13T09:39:58Z</time>
      </trkpt>
      <trkpt lat="46.12848" lon="6.57619">
        <ele>1962.9470214844</ele>
        <time>2017-05-13T09:40:35Z</time>
      </trkpt>
      <trkpt lat="46.12845" lon="6.5761">
        <ele>1967.4959716797</ele>
        <time>2017-05-13T09:41:19Z</time>
      </trkpt>
      <trkpt lat="46.12846" lon="6.57599">
        <ele>1976.4300537109</ele>
        <time>2017-05-13T09:42:41Z</time>
      </trkpt>
      <trkpt lat="46.1284" lon="6.57593">
        <ele>1979.5989990234</ele>
        <time>2017-05-13T09:43:15Z</time>
      </trkpt>
      <trkpt lat="46.12837" lon="6.57583">
        <ele>1985.4809570312</ele>
        <time>2017-05-13T09:44:30Z</time>
      </trkpt>
      <trkpt lat="46.12832" lon="6.57576">
        <ele>1989.0489501953</ele>
        <time>2017-05-13T09:45:12Z</time>
      </trkpt>
      <trkpt lat="46.1283" lon="6.57566">
        <ele>1993.7860107422</ele>
        <time>2017-05-13T09:46:27Z</time>
      </trkpt>
      <trkpt lat="46.12831" lon="6.57555">
        <ele>1995.4050292969</ele>
        <time>2017-05-13T09:46:46Z</time>
      </trkpt>
      <trkpt lat="46.1283" lon="6.57544">
        <ele>1996.9709472656</ele>
        <time>2017-05-13T09:47:01Z</time>
      </trkpt>
      <trkpt lat="46.12837" lon="6.5754">
        <ele>2000.6529541016</ele>
        <time>2017-05-13T09:48:00Z</time>
      </trkpt>
      <trkpt lat="46.12829" lon="6.57543">
        <ele>2001.9620361328</ele>
        <time>2017-05-13T10:13:48Z</time>
      </trkpt>
      <trkpt lat="46.12828" lon="6.57554">
        <ele>1999.6800537109</ele>
        <time>2017-05-13T10:28:32Z</time>
      </trkpt>
      <trkpt lat="46.12832" lon="6.57564">
        <ele>1997.0200195312</ele>
        <time>2017-05-13T10:29:53Z</time>
      </trkpt>
      <trkpt lat="46.12834" lon="6.57575">
        <ele>1996.0920410156</ele>
        <time>2017-05-13T10:30:00Z</time>
      </trkpt>
      <trkpt lat="46.12835" lon="6.57585">
        <ele>1993.1590576172</ele>
        <time>2017-05-13T10:30:25Z</time>
      </trkpt>
      <trkpt lat="46.12841" lon="6.57592">
        <ele>1982.2430419922</ele>
        <time>2017-05-13T10:31:45Z</time>
      </trkpt>
      <trkpt lat="46.12841" lon="6.57603">
        <ele>1978.4849853516</ele>
        <time>2017-05-13T10:32:29Z</time>
      </trkpt>
      <trkpt lat="46.12843" lon="6.57613">
        <ele>1975.5510253906</ele>
        <time>2017-05-13T10:33:15Z</time>
      </trkpt>
      <trkpt lat="46.12846" lon="6.57622">
        <ele>1968.9429931641</ele>
        <time>2017-05-13T10:34:11Z</time>
      </trkpt>
      <trkpt lat="46.12851" lon="6.57631">
        <ele>1962.8110351562</ele>
        <time>2017-05-13T10:35:11Z</time>
      </trkpt>
      <trkpt lat="46.12854" lon="6.5764">
        <ele>1959.6099853516</ele>
        <time>2017-05-13T10:35:30Z</time>
      </trkpt>
      <trkpt lat="46.12859" lon="6.57648">
        <ele>1954.3070068359</ele>
        <time>2017-05-13T10:36:10Z</time>
      </trkpt>
      <trkpt lat="46.12858" lon="6.57658">
        <ele>1951.791015625</ele>
        <time>2017-05-13T10:36:27Z</time>
      </trkpt>
      <trkpt lat="46.12861" lon="6.57668">
        <ele>1948.4119873047</ele>
        <time>2017-05-13T10:36:50Z</time>
      </trkpt>
      <trkpt lat="46.1286" lon="6.57678">
        <ele>1946.5679931641</ele>
        <time>2017-05-13T10:37:04Z</time>
      </trkpt>
      <trkpt lat="46.12867" lon="6.57678">
        <ele>1938.2120361328</ele>
        <time>2017-05-13T10:48:28Z</time>
      </trkpt>
      <trkpt lat="46.12871" lon="6.5769">
        <ele>1937.5040283203</ele>
        <time>2017-05-13T10:48:34Z</time>
      </trkpt>
      <trkpt lat="46.12872" lon="6.57701">
        <ele>1936.1569824219</ele>
        <time>2017-05-13T10:48:40Z</time>
      </trkpt>
      <trkpt lat="46.12887" lon="6.57709">
        <ele>1934.2889404297</ele>
        <time>2017-05-13T10:48:47Z</time>
      </trkpt>
      <trkpt lat="46.12887" lon="6.57722">
        <ele>1932.248046875</ele>
        <time>2017-05-13T10:48:52Z</time>
      </trkpt>
      <trkpt lat="46.12887" lon="6.57732">
        <ele>1926.8850097656</ele>
        <time>2017-05-13T10:49:16Z</time>
      </trkpt>
      <trkpt lat="46.12881" lon="6.5774">
        <ele>1925.3100585938</ele>
        <time>2017-05-13T10:49:21Z</time>
      </trkpt>
      <trkpt lat="46.12881" lon="6.57753">
        <ele>1924.1259765625</ele>
        <time>2017-05-13T10:49:24Z</time>
      </trkpt>
      <trkpt lat="46.12885" lon="6.57766">
        <ele>1917.7359619141</ele>
        <time>2017-05-13T10:49:30Z</time>
      </trkpt>
      <trkpt lat="46.12893" lon="6.57787">
        <ele>1911.2149658203</ele>
        <time>2017-05-13T10:49:35Z</time>
      </trkpt>
      <trkpt lat="46.12909" lon="6.57785">
        <ele>1897.7330322266</ele>
        <time>2017-05-13T10:49:42Z</time>
      </trkpt>
      <trkpt lat="46.12913" lon="6.57795">
        <ele>1891.1209716797</ele>
        <time>2017-05-13T10:50:50Z</time>
      </trkpt>
      <trkpt lat="46.1292" lon="6.57803">
        <ele>1888.6770019531</ele>
        <time>2017-05-13T10:50:54Z</time>
      </trkpt>
      <trkpt lat="46.12931" lon="6.57825">
        <ele>1879.9680175781</ele>
        <time>2017-05-13T10:51:00Z</time>
      </trkpt>
      <trkpt lat="46.12947" lon="6.57832">
        <ele>1867.2430419922</ele>
        <time>2017-05-13T10:51:28Z</time>
      </trkpt>
      <trkpt lat="46.12965" lon="6.57833">
        <ele>1863.1379394531</ele>
        <time>2017-05-13T10:51:34Z</time>
      </trkpt>
      <trkpt lat="46.12973" lon="6.57833">
        <ele>1858.29296875</ele>
        <time>2017-05-13T10:52:03Z</time>
      </trkpt>
      <trkpt lat="46.12981" lon="6.57836">
        <ele>1856.3439941406</ele>
        <time>2017-05-13T10:52:14Z</time>
      </trkpt>
      <trkpt lat="46.12994" lon="6.57834">
        <ele>1848.6560058594</ele>
        <time>2017-05-13T10:52:21Z</time>
      </trkpt>
      <trkpt lat="46.12991" lon="6.57824">
        <ele>1846.6280517578</ele>
        <time>2017-05-13T10:52:36Z</time>
      </trkpt>
      <trkpt lat="46.12996" lon="6.57832">
        <ele>1844.0169677734</ele>
        <time>2017-05-13T10:52:48Z</time>
      </trkpt>
      <trkpt lat="46.13012" lon="6.57833">
        <ele>1831.8420410156</ele>
        <time>2017-05-13T10:52:53Z</time>
      </trkpt>
      <trkpt lat="46.13028" lon="6.57846">
        <ele>1823.7259521484</ele>
        <time>2017-05-13T10:52:58Z</time>
      </trkpt>
      <trkpt lat="46.13025" lon="6.57856">
        <ele>1808.5290527344</ele>
        <time>2017-05-13T10:54:59Z</time>
      </trkpt>
      <trkpt lat="46.13028" lon="6.57869">
        <ele>1806.2099609375</ele>
        <time>2017-05-13T10:55:02Z</time>
      </trkpt>
      <trkpt lat="46.13038" lon="6.57881">
        <ele>1799.5729980469</ele>
        <time>2017-05-13T10:55:08Z</time>
      </trkpt>
      <trkpt lat="46.13037" lon="6.57892">
        <ele>1792.9699707031</ele>
        <time>2017-05-13T10:55:39Z</time>
      </trkpt>
      <trkpt lat="46.13046" lon="6.57912">
        <ele>1787.1369628906</ele>
        <time>2017-05-13T10:55:50Z</time>
      </trkpt>
      <trkpt lat="46.13057" lon="6.57931">
        <ele>1782.1910400391</ele>
        <time>2017-05-13T10:55:58Z</time>
      </trkpt>
      <trkpt lat="46.13056" lon="6.57942">
        <ele>1780.373046875</ele>
        <time>2017-05-13T10:56:02Z</time>
      </trkpt>
      <trkpt lat="46.13059" lon="6.57954">
        <ele>1767.7669677734</ele>
        <time>2017-05-13T10:56:22Z</time>
      </trkpt>
      <trkpt lat="46.13083" lon="6.57962">
        <ele>1757.2819824219</ele>
        <time>2017-05-13T10:56:29Z</time>
      </trkpt>
      <trkpt lat="46.13089" lon="6.57968">
        <ele>1755.8399658203</ele>
        <time>2017-05-13T10:56:34Z</time>
      </trkpt>
      <trkpt lat="46.13093" lon="6.5798">
        <ele>1749.5959472656</ele>
        <time>2017-05-13T10:58:49Z</time>
      </trkpt>
      <trkpt lat="46.13101" lon="6.57979">
        <ele>1746.2239990234</ele>
        <time>2017-05-13T10:58:51Z</time>
      </trkpt>
      <trkpt lat="46.13123" lon="6.5798">
        <ele>1731.7249755859</ele>
        <time>2017-05-13T10:58:58Z</time>
      </trkpt>
      <trkpt lat="46.13149" lon="6.57988">
        <ele>1717.20703125</ele>
        <time>2017-05-13T10:59:03Z</time>
      </trkpt>
      <trkpt lat="46.1316" lon="6.57985">
        <ele>1712.4630126953</ele>
        <time>2017-05-13T10:59:06Z</time>
      </trkpt>
      <trkpt lat="46.13176" lon="6.57985">
        <ele>1709.2080078125</ele>
        <time>2017-05-13T10:59:14Z</time>
      </trkpt>
      <trkpt lat="46.13183" lon="6.57992">
        <ele>1707.8830566406</ele>
        <time>2017-05-13T10:59:18Z</time>
      </trkpt>
      <trkpt lat="46.1321" lon="6.57991">
        <ele>1695.6300048828</ele>
        <time>2017-05-13T10:59:26Z</time>
      </trkpt>
      <trkpt lat="46.13205" lon="6.58001">
        <ele>1695.0050048828</ele>
        <time>2017-05-13T10:59:50Z</time>
      </trkpt>
      <trkpt lat="46.13199" lon="6.5801">
        <ele>1694.6750488281</ele>
        <time>2017-05-13T10:59:53Z</time>
      </trkpt>
      <trkpt lat="46.132" lon="6.58033">
        <ele>1692.4639892578</ele>
        <time>2017-05-13T11:00:03Z</time>
      </trkpt>
      <trkpt lat="46.13198" lon="6.5806">
        <ele>1684.8170166016</ele>
        <time>2017-05-13T11:00:10Z</time>
      </trkpt>
      <trkpt lat="46.13208" lon="6.58073">
        <ele>1680.4189453125</ele>
        <time>2017-05-13T11:00:15Z</time>
      </trkpt>
      <trkpt lat="46.13224" lon="6.58077">
        <ele>1669.5930175781</ele>
        <time>2017-05-13T11:00:22Z</time>
      </trkpt>
      <trkpt lat="46.13233" lon="6.58094">
        <ele>1663.5209960938</ele>
        <time>2017-05-13T11:00:29Z</time>
      </trkpt>
      <trkpt lat="46.13244" lon="6.5811">
        <ele>1653.0090332031</ele>
        <time>2017-05-13T11:00:34Z</time>
      </trkpt>
      <trkpt lat="46.13253" lon="6.58128">
        <ele>1640.1300048828</ele>
        <time>2017-05-13T11:01:03Z</time>
      </trkpt>
      <trkpt lat="46.13272" lon="6.58141">
        <ele>1624.3669433594</ele>
        <time>2017-05-13T11:01:09Z</time>
      </trkpt>
      <trkpt lat="46.13286" lon="6.58156">
        <ele>1614.4429931641</ele>
        <time>2017-05-13T11:01:14Z</time>
      </trkpt>
      <trkpt lat="46.13293" lon="6.58181">
        <ele>1604.6490478516</ele>
        <time>2017-05-13T11:01:18Z</time>
      </trkpt>
      <trkpt lat="46.133" lon="6.58202">
        <ele>1589.9840087891</ele>
        <time>2017-05-13T11:01:25Z</time>
      </trkpt>
      <trkpt lat="46.1331" lon="6.58218">
        <ele>1580.5749511719</ele>
        <time>2017-05-13T11:01:30Z</time>
      </trkpt>
      <trkpt lat="46.13309" lon="6.58242">
        <ele>1573.2249755859</ele>
        <time>2017-05-13T11:01:34Z</time>
      </trkpt>
      <trkpt lat="46.13325" lon="6.58258">
        <ele>1563.6770019531</ele>
        <time>2017-05-13T11:01:39Z</time>
      </trkpt>
      <trkpt lat="46.13334" lon="6.58263">
        <ele>1559.0570068359</ele>
        <time>2017-05-13T11:01:42Z</time>
      </trkpt>
      <trkpt lat="46.13335" lon="6.58281">
        <ele>1556.9830322266</ele>
        <time>2017-05-13T11:02:02Z</time>
      </trkpt>
      <trkpt lat="46.1334" lon="6.58289">
        <ele>1545.5770263672</ele>
        <time>2017-05-13T11:08:46Z</time>
      </trkpt>
      <trkpt lat="46.13348" lon="6.58287">
        <ele>1545.5600585938</ele>
        <time>2017-05-13T11:08:54Z</time>
      </trkpt>
      <trkpt lat="46.13356" lon="6.58286">
        <ele>1545.4219970703</ele>
        <time>2017-05-13T11:09:13Z</time>
      </trkpt>
      <trkpt lat="46.13363" lon="6.5829">
        <ele>1545.8499755859</ele>
        <time>2017-05-13T11:09:21Z</time>
      </trkpt>
      <trkpt lat="46.13369" lon="6.58294">
        <ele>1546.0240478516</ele>
        <time>2017-05-13T11:09:31Z</time>
      </trkpt>
      <trkpt lat="46.13375" lon="6.58301">
        <ele>1546.376953125</ele>
        <time>2017-05-13T11:09:38Z</time>
      </trkpt>
      <trkpt lat="46.13383" lon="6.58305">
        <ele>1546.6159667969</ele>
        <time>2017-05-13T11:09:46Z</time>
      </trkpt>
      <trkpt lat="46.13391" lon="6.58309">
        <ele>1546.3699951172</ele>
        <time>2017-05-13T11:10:18Z</time>
      </trkpt>
      <trkpt lat="46.13388" lon="6.58319">
        <ele>1545.248046875</ele>
        <time>2017-05-13T11:10:44Z</time>
      </trkpt>
      <trkpt lat="46.13393" lon="6.58328">
        <ele>1545.1159667969</ele>
        <time>2017-05-13T11:10:57Z</time>
      </trkpt>
      <trkpt lat="46.13399" lon="6.58336">
        <ele>1545.2889404297</ele>
        <time>2017-05-13T11:11:04Z</time>
      </trkpt>
      <trkpt lat="46.13404" lon="6.58343">
        <ele>1544.9759521484</ele>
        <time>2017-05-13T11:11:11Z</time>
      </trkpt>
      <trkpt lat="46.13409" lon="6.58352">
        <ele>1542.8360595703</ele>
        <time>2017-05-13T11:11:27Z</time>
      </trkpt>
      <trkpt lat="46.13413" lon="6.58361">
        <ele>1541.5360107422</ele>
        <time>2017-05-13T11:11:40Z</time>
      </trkpt>
      <trkpt lat="46.13417" lon="6.5837">
        <ele>1540.7769775391</ele>
        <time>2017-05-13T11:11:52Z</time>
      </trkpt>
      <trkpt lat="46.13419" lon="6.5838">
        <ele>1540.8640136719</ele>
        <time>2017-05-13T11:12:01Z</time>
      </trkpt>
      <trkpt lat="46.13425" lon="6.58388">
        <ele>1540.6879882812</ele>
        <time>2017-05-13T11:12:12Z</time>
      </trkpt>
      <trkpt lat="46.13428" lon="6.58397">
        <ele>1540.3680419922</ele>
        <time>2017-05-13T11:12:29Z</time>
      </trkpt>
      <trkpt lat="46.13434" lon="6.58403">
        <ele>1541.4670410156</ele>
        <time>2017-05-13T11:12:55Z</time>
      </trkpt>
      <trkpt lat="46.13441" lon="6.58404">
        <ele>1542.5190429688</ele>
        <time>2017-05-13T11:13:23Z</time>
      </trkpt>
      <trkpt lat="46.13448" lon="6.58407">
        <ele>1543.2159423828</ele>
        <time>2017-05-13T11:13:37Z</time>
      </trkpt>
      <trkpt lat="46.13456" lon="6.58409">
        <ele>1543.9919433594</ele>
        <time>2017-05-13T11:13:55Z</time>
      </trkpt>
      <trkpt lat="46.13453" lon="6.58418">
        <ele>1544.4360351562</ele>
        <time>2017-05-13T11:14:02Z</time>
      </trkpt>
      <trkpt lat="46.1346" lon="6.58419">
        <ele>1543.6879882812</ele>
        <time>2017-05-13T11:14:32Z</time>
      </trkpt>
      <trkpt lat="46.13468" lon="6.58418">
        <ele>1543.375</ele>
        <time>2017-05-13T11:14:40Z</time>
      </trkpt>
      <trkpt lat="46.13475" lon="6.58414">
        <ele>1543.0030517578</ele>
        <time>2017-05-13T11:14:48Z</time>
      </trkpt>
      <trkpt lat="46.13482" lon="6.58412">
        <ele>1542.8919677734</ele>
        <time>2017-05-13T11:14:56Z</time>
      </trkpt>
      <trkpt lat="46.1349" lon="6.58414">
        <ele>1542.9279785156</ele>
        <time>2017-05-13T11:15:03Z</time>
      </trkpt>
      <trkpt lat="46.13498" lon="6.58416">
        <ele>1542.5629882812</ele>
        <time>2017-05-13T11:15:12Z</time>
      </trkpt>
      <trkpt lat="46.13506" lon="6.58412">
        <ele>1542.6190185547</ele>
        <time>2017-05-13T11:15:18Z</time>
      </trkpt>
      <trkpt lat="46.13514" lon="6.58411">
        <ele>1542.7530517578</ele>
        <time>2017-05-13T11:15:27Z</time>
      </trkpt>
      <trkpt lat="46.13521" lon="6.58411">
        <ele>1543.0389404297</ele>
        <time>2017-05-13T11:15:34Z</time>
      </trkpt>
      <trkpt lat="46.13529" lon="6.58412">
        <ele>1543.5009765625</ele>
        <time>2017-05-13T11:15:42Z</time>
      </trkpt>
      <trkpt lat="46.13536" lon="6.58412">
        <ele>1543.3540039062</ele>
        <time>2017-05-13T11:15:50Z</time>
      </trkpt>
      <trkpt lat="46.13544" lon="6.58415">
        <ele>1543.4680175781</ele>
        <time>2017-05-13T11:15:57Z</time>
      </trkpt>
      <trkpt lat="46.13551" lon="6.58419">
        <ele>1543.4489746094</ele>
        <time>2017-05-13T11:16:06Z</time>
      </trkpt>
      <trkpt lat="46.13558" lon="6.58423">
        <ele>1543.2800292969</ele>
        <time>2017-05-13T11:16:12Z</time>
      </trkpt>
      <trkpt lat="46.13566" lon="6.58428">
        <ele>1542.9639892578</ele>
        <time>2017-05-13T11:16:19Z</time>
      </trkpt>
      <trkpt lat="46.13573" lon="6.58432">
        <ele>1542.8680419922</ele>
        <time>2017-05-13T11:16:28Z</time>
      </trkpt>
      <trkpt lat="46.1358" lon="6.58437">
        <ele>1542.7869873047</ele>
        <time>2017-05-13T11:16:35Z</time>
      </trkpt>
      <trkpt lat="46.13587" lon="6.58441">
        <ele>1542.6379394531</ele>
        <time>2017-05-13T11:16:42Z</time>
      </trkpt>
      <trkpt lat="46.13594" lon="6.58444">
        <ele>1542.4940185547</ele>
        <time>2017-05-13T11:16:49Z</time>
      </trkpt>
      <trkpt lat="46.13602" lon="6.58448">
        <ele>1542.4079589844</ele>
        <time>2017-05-13T11:16:57Z</time>
      </trkpt>
      <trkpt lat="46.13609" lon="6.5845">
        <ele>1542.4749755859</ele>
        <time>2017-05-13T11:17:04Z</time>
      </trkpt>
      <trkpt lat="46.13617" lon="6.58455">
        <ele>1542.2889404297</ele>
        <time>2017-05-13T11:17:11Z</time>
      </trkpt>
      <trkpt lat="46.13624" lon="6.58458">
        <ele>1542.1999511719</ele>
        <time>2017-05-13T11:17:19Z</time>
      </trkpt>
      <trkpt lat="46.13632" lon="6.58461">
        <ele>1542.333984375</ele>
        <time>2017-05-13T11:17:26Z</time>
      </trkpt>
      <trkpt lat="46.13639" lon="6.58464">
        <ele>1542.5179443359</ele>
        <time>2017-05-13T11:17:35Z</time>
      </trkpt>
      <trkpt lat="46.13646" lon="6.58468">
        <ele>1542.6970214844</ele>
        <time>2017-05-13T11:17:42Z</time>
      </trkpt>
      <trkpt lat="46.13653" lon="6.58471">
        <ele>1542.8649902344</ele>
        <time>2017-05-13T11:17:50Z</time>
      </trkpt>
      <trkpt lat="46.1366" lon="6.58476">
        <ele>1542.7640380859</ele>
        <time>2017-05-13T11:17:56Z</time>
      </trkpt>
      <trkpt lat="46.13667" lon="6.5848">
        <ele>1542.7700195312</ele>
        <time>2017-05-13T11:18:04Z</time>
      </trkpt>
      <trkpt lat="46.13674" lon="6.58475">
        <ele>1542.5830078125</ele>
        <time>2017-05-13T11:18:13Z</time>
      </trkpt>
      <trkpt lat="46.13679" lon="6.58467">
        <ele>1542.6419677734</ele>
        <time>2017-05-13T11:18:23Z</time>
      </trkpt>
      <trkpt lat="46.13685" lon="6.58461">
        <ele>1542.6240234375</ele>
        <time>2017-05-13T11:18:31Z</time>
      </trkpt>
      <trkpt lat="46.13692" lon="6.58461">
        <ele>1542.5489501953</ele>
        <time>2017-05-13T11:19:31Z</time>
      </trkpt>
      <trkpt lat="46.13699" lon="6.58465">
        <ele>1542.3449707031</ele>
        <time>2017-05-13T11:19:39Z</time>
      </trkpt>
      <trkpt lat="46.13706" lon="6.58469">
        <ele>1542.0250244141</ele>
        <time>2017-05-13T11:19:46Z</time>
      </trkpt>
      <trkpt lat="46.13713" lon="6.58474">
        <ele>1541.6090087891</ele>
        <time>2017-05-13T11:19:54Z</time>
      </trkpt>
      <trkpt lat="46.1372" lon="6.58477">
        <ele>1541.3210449219</ele>
        <time>2017-05-13T11:20:03Z</time>
      </trkpt>
      <trkpt lat="46.13727" lon="6.58481">
        <ele>1541.2159423828</ele>
        <time>2017-05-13T11:20:11Z</time>
      </trkpt>
      <trkpt lat="46.13734" lon="6.58486">
        <ele>1540.9520263672</ele>
        <time>2017-05-13T11:20:21Z</time>
      </trkpt>
      <trkpt lat="46.13741" lon="6.5849">
        <ele>1540.8149414062</ele>
        <time>2017-05-13T11:20:29Z</time>
      </trkpt>
      <trkpt lat="46.13747" lon="6.58496">
        <ele>1540.7199707031</ele>
        <time>2017-05-13T11:20:36Z</time>
      </trkpt>
      <trkpt lat="46.13751" lon="6.58506">
        <ele>1540.3189697266</ele>
        <time>2017-05-13T11:20:47Z</time>
      </trkpt>
      <trkpt lat="46.13753" lon="6.58516">
        <ele>1539.9010009766</ele>
        <time>2017-05-13T11:20:55Z</time>
      </trkpt>
      <trkpt lat="46.13759" lon="6.58524">
        <ele>1539.166015625</ele>
        <time>2017-05-13T11:21:05Z</time>
      </trkpt>
      <trkpt lat="46.13763" lon="6.58532">
        <ele>1538.3360595703</ele>
        <time>2017-05-13T11:21:14Z</time>
      </trkpt>
      <trkpt lat="46.13771" lon="6.58536">
        <ele>1537.6290283203</ele>
        <time>2017-05-13T11:21:26Z</time>
      </trkpt>
      <trkpt lat="46.13779" lon="6.58533">
        <ele>1537.3210449219</ele>
        <time>2017-05-13T11:21:36Z</time>
      </trkpt>
      <trkpt lat="46.13786" lon="6.58532">
        <ele>1536.9739990234</ele>
        <time>2017-05-13T11:21:43Z</time>
      </trkpt>
      <trkpt lat="46.13793" lon="6.58529">
        <ele>1536.5600585938</ele>
        <time>2017-05-13T11:21:50Z</time>
      </trkpt>
      <trkpt lat="46.138" lon="6.58524">
        <ele>1536.3549804688</ele>
        <time>2017-05-13T11:21:57Z</time>
      </trkpt>
      <trkpt lat="46.13807" lon="6.5852">
        <ele>1535.9949951172</ele>
        <time>2017-05-13T11:22:03Z</time>
      </trkpt>
      <trkpt lat="46.13815" lon="6.58517">
        <ele>1535.6280517578</ele>
        <time>2017-05-13T11:22:11Z</time>
      </trkpt>
      <trkpt lat="46.13822" lon="6.58512">
        <ele>1535.2779541016</ele>
        <time>2017-05-13T11:22:19Z</time>
      </trkpt>
      <trkpt lat="46.13828" lon="6.58508">
        <ele>1534.7559814453</ele>
        <time>2017-05-13T11:22:25Z</time>
      </trkpt>
      <trkpt lat="46.13835" lon="6.58504">
        <ele>1534.2900390625</ele>
        <time>2017-05-13T11:22:32Z</time>
      </trkpt>
      <trkpt lat="46.13844" lon="6.58502">
        <ele>1534.2030029297</ele>
        <time>2017-05-13T11:22:40Z</time>
      </trkpt>
      <trkpt lat="46.13851" lon="6.58501">
        <ele>1533.9919433594</ele>
        <time>2017-05-13T11:22:48Z</time>
      </trkpt>
      <trkpt lat="46.13858" lon="6.58504">
        <ele>1532.6850585938</ele>
        <time>2017-05-13T11:23:00Z</time>
      </trkpt>
      <trkpt lat="46.13866" lon="6.58506">
        <ele>1531.0830078125</ele>
        <time>2017-05-13T11:23:13Z</time>
      </trkpt>
      <trkpt lat="46.13873" lon="6.58507">
        <ele>1530.4449462891</ele>
        <time>2017-05-13T11:23:19Z</time>
      </trkpt>
      <trkpt lat="46.13881" lon="6.58509">
        <ele>1529.3360595703</ele>
        <time>2017-05-13T11:23:26Z</time>
      </trkpt>
      <trkpt lat="46.13886" lon="6.58516">
        <ele>1525.6829833984</ele>
        <time>2017-05-13T11:24:01Z</time>
      </trkpt>
      <trkpt lat="46.13892" lon="6.58521">
        <ele>1526.2280273438</ele>
        <time>2017-05-13T11:24:18Z</time>
      </trkpt>
      <trkpt lat="46.13899" lon="6.58515">
        <ele>1525.4580078125</ele>
        <time>2017-05-13T11:24:39Z</time>
      </trkpt>
      <trkpt lat="46.13906" lon="6.58512">
        <ele>1525.0860595703</ele>
        <time>2017-05-13T11:24:48Z</time>
      </trkpt>
      <trkpt lat="46.13914" lon="6.58513">
        <ele>1525.2619628906</ele>
        <time>2017-05-13T11:24:56Z</time>
      </trkpt>
      <trkpt lat="46.13922" lon="6.58513">
        <ele>1524.5169677734</ele>
        <time>2017-05-13T11:25:07Z</time>
      </trkpt>
      <trkpt lat="46.13929" lon="6.58512">
        <ele>1523.9560546875</ele>
        <time>2017-05-13T11:25:19Z</time>
      </trkpt>
      <trkpt lat="46.13937" lon="6.58515">
        <ele>1522.2359619141</ele>
        <time>2017-05-13T11:25:32Z</time>
      </trkpt>
      <trkpt lat="46.13944" lon="6.58517">
        <ele>1521.3409423828</ele>
        <time>2017-05-13T11:25:42Z</time>
      </trkpt>
      <trkpt lat="46.13951" lon="6.58522">
        <ele>1520.3029785156</ele>
        <time>2017-05-13T11:25:49Z</time>
      </trkpt>
      <trkpt lat="46.13957" lon="6.58516">
        <ele>1518.7669677734</ele>
        <time>2017-05-13T11:25:59Z</time>
      </trkpt>
      <trkpt lat="46.13962" lon="6.58522">
        <ele>1516.6319580078</ele>
        <time>2017-05-13T11:29:18Z</time>
      </trkpt>
      <trkpt lat="46.13955" lon="6.5852">
        <ele>1516.373046875</ele>
        <time>2017-05-13T11:32:00Z</time>
      </trkpt>
    </trkseg>
  </trk>
</gpx>